createdAt,value
2023-02-16T00:00:20.042Z,12.01
2023-02-16T00:01:19.546Z,11.97
2023-02-16T00:02:20.127Z,11.95
2023-02-16T00:03:19.627Z,11.93
2023-02-16T00:04:19.757Z,11.90
2023-02-16T00:05:19.962Z,11.87
2023-02-16T00:06:19.895Z,11.86
2023-02-16T00:07:19.822Z,11.82
2023-02-16T00:08:19.317Z,11.69
2023-02-16T00:09:19.136Z,11.70
2023-02-16T00:10:19.847Z,11.71
2023-02-16T00:11:20.178Z,11.69
2023-02-16T00:12:19.711Z,11.67
2023-02-16T00:13:19.430Z,11.65
2023-02-16T00:14:19.643Z,11.62
2023-02-16T00:15:20.209Z,11.61
2023-02-16T00:16:19.531Z,11.62
2023-02-16T00:17:19.160Z,11.59
2023-02-16T00:18:19.815Z,11.56
2023-02-16T00:19:18.936Z,11.53
2023-02-16T00:20:20.197Z,11.50
2023-02-16T00:21:19.110Z,11.5
2023-02-16T00:22:19.050Z,11.44
2023-02-16T00:23:19.009Z,11.37
2023-02-16T00:24:19.762Z,11.36
2023-02-16T00:25:19.298Z,11.34
2023-02-16T00:26:19.374Z,11.32
2023-02-16T00:27:19.427Z,11.32
2023-02-16T00:28:19.040Z,11.31
2023-02-16T00:29:19.096Z,11.28
2023-02-16T00:30:20.318Z,11.27
2023-02-16T00:31:20.115Z,11.26
2023-02-16T00:32:19.732Z,11.27
2023-02-16T00:33:19.429Z,11.25
2023-02-16T00:34:19.386Z,11.21
2023-02-16T00:35:19.585Z,11.21
2023-02-16T00:36:19.736Z,11.20
2023-02-16T00:37:19.386Z,11.18
2023-02-16T00:38:19.479Z,11.17
2023-02-16T00:39:20.242Z,11.15
2023-02-16T00:40:19.695Z,11.14
2023-02-16T00:41:19.401Z,11.09
2023-02-16T00:42:19.518Z,11.09
2023-02-16T00:43:19.122Z,11.06
2023-02-16T00:44:19.273Z,11.05
2023-02-16T00:45:19.843Z,11.05
2023-02-16T00:46:19.567Z,11.01
2023-02-16T00:47:20.007Z,10.97
2023-02-16T00:48:19.364Z,10.94
2023-02-16T00:49:19.095Z,10.96
2023-02-16T00:50:19.824Z,10.94
2023-02-16T00:51:25.810Z,10.92
2023-02-16T00:52:19.921Z,10.90
2023-02-16T00:53:19.115Z,10.88
2023-02-16T00:54:19.998Z,10.82
2023-02-16T00:55:19.130Z,10.80
2023-02-16T00:56:19.573Z,10.77
2023-02-16T00:57:19.414Z,10.75
2023-02-16T00:58:19.784Z,10.72
2023-02-16T00:59:19.113Z,10.68
2023-02-16T01:00:21.114Z,10.63
2023-02-16T01:01:22.060Z,10.60
2023-02-16T01:02:19.279Z,10.58
2023-02-16T01:03:19.425Z,10.53
2023-02-16T01:04:19.162Z,10.42
2023-02-16T01:05:19.491Z,10.43
2023-02-16T01:06:19.129Z,10.42
2023-02-16T01:07:20.379Z,10.42
2023-02-16T01:08:19.883Z,10.40
2023-02-16T01:09:19.820Z,10.38
2023-02-16T01:10:20.262Z,10.38
2023-02-16T01:11:19.375Z,10.32
2023-02-16T01:12:19.259Z,10.33
2023-02-16T01:13:19.298Z,10.30
2023-02-16T01:14:19.080Z,10.28
2023-02-16T01:15:19.460Z,10.26
2023-02-16T01:16:19.354Z,10.19
2023-02-16T01:17:19.108Z,10.18
2023-02-16T01:18:19.941Z,10.16
2023-02-16T01:19:19.000Z,10.16
2023-02-16T01:20:19.754Z,10.14
2023-02-16T01:21:19.373Z,10.14
2023-02-16T01:22:18.976Z,10.13
2023-02-16T01:23:19.072Z,10.12
2023-02-16T01:24:19.569Z,10.11
2023-02-16T01:25:19.086Z,10.11
2023-02-16T01:26:19.507Z,10.10
2023-02-16T01:27:19.469Z,10.06
2023-02-16T01:28:19.083Z,10.02
2023-02-16T01:29:19.852Z,10.00
2023-02-16T01:30:19.630Z,9.975
2023-02-16T01:31:19.467Z,9.960
2023-02-16T01:32:19.674Z,9.944
2023-02-16T01:33:18.898Z,9.949
2023-02-16T01:34:19.358Z,9.914
2023-02-16T01:35:20.281Z,9.923
2023-02-16T01:36:19.547Z,9.923
2023-02-16T01:37:18.960Z,9.920
2023-02-16T01:38:19.256Z,9.885
2023-02-16T01:39:19.193Z,9.885
2023-02-16T01:40:19.475Z,9.842
2023-02-16T01:41:19.672Z,9.835
2023-02-16T01:42:19.775Z,9.845
2023-02-16T01:43:19.903Z,9.815
2023-02-16T01:44:20.120Z,9.793
2023-02-16T01:45:20.132Z,9.770
2023-02-16T01:46:19.394Z,9.736
2023-02-16T01:47:19.266Z,9.733
2023-02-16T01:48:19.229Z,9.694
2023-02-16T01:49:19.368Z,9.725
2023-02-16T01:50:19.723Z,9.710
2023-02-16T01:51:18.824Z,9.710
2023-02-16T01:52:19.201Z,9.720
2023-02-16T01:53:19.365Z,9.710
2023-02-16T01:54:19.367Z,9.694
2023-02-16T01:55:19.574Z,9.659
2023-02-16T01:56:18.800Z,9.689
2023-02-16T01:57:19.173Z,9.620
2023-02-16T01:58:19.146Z,9.600
2023-02-16T01:59:19.050Z,9.574
2023-02-16T02:00:20.742Z,9.539
2023-02-16T02:01:19.914Z,9.534
2023-02-16T02:02:19.563Z,9.520
2023-02-16T02:03:19.440Z,9.510
2023-02-16T02:04:20.359Z,9.510
2023-02-16T02:05:19.379Z,9.489
2023-02-16T02:06:19.285Z,9.505
2023-02-16T02:07:19.325Z,9.434
2023-02-16T02:08:19.202Z,9.425
2023-02-16T02:09:19.365Z,9.399
2023-02-16T02:10:19.865Z,9.366
2023-02-16T02:11:19.340Z,9.355
2023-02-16T02:12:20.049Z,9.338
2023-02-16T02:13:24.526Z,9.321
2023-02-16T02:14:19.568Z,9.321
2023-02-16T02:15:19.456Z,9.305
2023-02-16T02:16:20.875Z,9.289
2023-02-16T02:17:19.663Z,9.265
2023-02-16T02:18:19.599Z,9.270
2023-02-16T02:19:19.393Z,9.25
2023-02-16T02:20:19.672Z,9.229
2023-02-16T02:21:19.442Z,9.204
2023-02-16T02:22:19.173Z,9.210
2023-02-16T02:23:27.378Z,9.189
2023-02-16T02:24:19.240Z,9.184
2023-02-16T02:25:20.090Z,9.184
2023-02-16T02:26:19.431Z,9.178
2023-02-16T02:27:18.969Z,9.182
2023-02-16T02:28:19.324Z,9.154
2023-02-16T02:29:19.130Z,9.121
2023-02-16T02:30:20.222Z,9.064
2023-02-16T02:31:20.258Z,9.050
2023-02-16T02:32:19.760Z,9.024
2023-02-16T02:33:19.092Z,9.020
2023-02-16T02:34:19.657Z,9.005
2023-02-16T02:35:19.466Z,9.010
2023-02-16T02:36:19.522Z,8.939
2023-02-16T02:37:20.025Z,8.899
2023-02-16T02:38:19.856Z,8.885
2023-02-16T02:39:19.755Z,8.868
2023-02-16T02:40:19.835Z,8.861
2023-02-16T02:41:20.023Z,8.805
2023-02-16T02:42:19.312Z,8.822
2023-02-16T02:43:19.196Z,8.810
2023-02-16T02:44:20.136Z,8.805
2023-02-16T02:45:20.808Z,8.774
2023-02-16T02:46:19.763Z,8.779
2023-02-16T02:47:19.416Z,8.774
2023-02-16T02:48:19.586Z,8.774
2023-02-16T02:49:19.505Z,8.744
2023-02-16T02:50:19.629Z,8.739
2023-02-16T02:51:19.316Z,8.744
2023-02-16T02:52:19.837Z,8.734
2023-02-16T02:53:19.816Z,8.722
2023-02-16T02:54:19.844Z,8.722
2023-02-16T02:55:20.896Z,8.725
2023-02-16T02:56:19.667Z,8.711
2023-02-16T02:57:19.542Z,8.699
2023-02-16T02:58:19.489Z,8.706
2023-02-16T02:59:19.196Z,8.694
2023-02-16T03:00:20.632Z,8.654
2023-02-16T03:01:19.632Z,8.630
2023-02-16T03:02:19.640Z,8.614
2023-02-16T03:03:19.174Z,8.569
2023-02-16T03:04:19.408Z,8.600
2023-02-16T03:05:19.483Z,8.609
2023-02-16T03:06:19.428Z,8.614
2023-02-16T03:07:19.630Z,8.555
2023-02-16T03:08:19.269Z,8.539
2023-02-16T03:09:19.257Z,8.524
2023-02-16T03:10:20.065Z,8.569
2023-02-16T03:11:19.439Z,8.574
2023-02-16T03:12:19.515Z,8.569
2023-02-16T03:13:19.585Z,8.569
2023-02-16T03:14:19.265Z,8.534
2023-02-16T03:15:19.419Z,8.484
2023-02-16T03:16:19.157Z,8.454
2023-02-16T03:17:20.330Z,8.465
2023-02-16T03:18:19.372Z,8.435
2023-02-16T03:19:19.229Z,8.435
2023-02-16T03:20:19.838Z,8.475
2023-02-16T03:21:19.491Z,8.5
2023-02-16T03:22:19.349Z,8.5
2023-02-16T03:23:19.684Z,8.510
2023-02-16T03:24:19.263Z,8.5
2023-02-16T03:25:19.142Z,8.524
2023-02-16T03:26:19.328Z,8.520
2023-02-16T03:27:19.267Z,8.550
2023-02-16T03:28:19.976Z,8.560
2023-02-16T03:29:19.287Z,8.564
2023-02-16T03:30:20.129Z,8.590
2023-02-16T03:31:19.839Z,8.600
2023-02-16T03:32:19.982Z,8.625
2023-02-16T03:33:19.280Z,8.642
2023-02-16T03:34:19.034Z,8.659
2023-02-16T03:35:19.770Z,8.682
2023-02-16T03:36:19.274Z,8.684
2023-02-16T03:37:19.245Z,8.689
2023-02-16T03:38:19.545Z,8.725
2023-02-16T03:39:18.993Z,8.687
2023-02-16T03:40:20.457Z,8.619
2023-02-16T03:41:18.753Z,8.637
2023-02-16T03:42:19.481Z,8.631
2023-02-16T03:43:19.243Z,8.631
2023-02-16T03:44:19.813Z,8.642
2023-02-16T03:45:19.306Z,8.626
2023-02-16T03:46:19.457Z,8.642
2023-02-16T03:47:19.788Z,8.659
2023-02-16T03:48:19.494Z,8.626
2023-02-16T03:49:19.717Z,8.604
2023-02-16T03:50:19.478Z,8.637
2023-02-16T03:51:19.118Z,8.654
2023-02-16T03:52:19.907Z,8.659
2023-02-16T03:53:19.250Z,8.689
2023-02-16T03:54:19.355Z,8.715
2023-02-16T03:55:19.789Z,8.710
2023-02-16T03:56:19.506Z,8.715
2023-02-16T03:57:19.954Z,8.725
2023-02-16T03:58:19.650Z,8.755
2023-02-16T03:59:19.077Z,8.734
2023-02-16T04:00:20.870Z,8.760
2023-02-16T04:01:19.790Z,8.760
2023-02-16T04:02:19.931Z,8.770
2023-02-16T04:03:19.956Z,8.755
2023-02-16T04:04:19.589Z,8.744
2023-02-16T04:05:20.219Z,8.710
2023-02-16T04:06:19.763Z,8.723
2023-02-16T04:07:20.406Z,8.699
2023-02-16T04:08:19.971Z,8.671
2023-02-16T04:09:20.583Z,8.631
2023-02-16T04:10:20.281Z,8.604
2023-02-16T04:11:19.622Z,8.619
2023-02-16T04:12:20.410Z,8.654
2023-02-16T04:13:19.779Z,8.657
2023-02-16T04:14:20.443Z,8.620
2023-02-16T04:15:19.928Z,8.578
2023-02-16T04:16:20.735Z,8.587
2023-02-16T04:17:19.591Z,8.555
2023-02-16T04:18:20.068Z,8.527
2023-02-16T04:19:19.625Z,8.450
2023-02-16T04:20:20.579Z,8.465
2023-02-16T04:21:20.025Z,8.505
2023-02-16T04:22:20.025Z,8.461
2023-02-16T04:23:20.217Z,8.390
2023-02-16T04:24:19.959Z,8.390
2023-02-16T04:25:21.322Z,8.435
2023-02-16T04:26:19.684Z,8.449
2023-02-16T04:27:20.204Z,8.465
2023-02-16T04:28:19.295Z,8.465
2023-02-16T04:29:19.819Z,8.460
2023-02-16T04:30:20.560Z,8.454
2023-02-16T04:31:20.154Z,8.435
2023-02-16T04:32:19.468Z,8.449
2023-02-16T04:33:19.560Z,8.484
2023-02-16T04:34:19.012Z,8.494
2023-02-16T04:35:19.605Z,8.489
2023-02-16T04:36:19.560Z,8.510
2023-02-16T04:37:19.301Z,8.494
2023-02-16T04:38:19.759Z,8.505
2023-02-16T04:39:18.816Z,8.5
2023-02-16T04:40:19.756Z,8.494
2023-02-16T04:41:19.174Z,8.505
2023-02-16T04:42:18.884Z,8.484
2023-02-16T04:43:19.358Z,8.444
2023-02-16T04:44:19.243Z,8.439
2023-02-16T04:45:20.231Z,8.414
2023-02-16T04:46:19.760Z,8.439
2023-02-16T04:47:19.182Z,8.439
2023-02-16T04:48:18.914Z,8.460
2023-02-16T04:49:19.731Z,8.430
2023-02-16T04:50:19.803Z,8.454
2023-02-16T04:51:19.520Z,8.449
2023-02-16T04:52:19.608Z,8.465
2023-02-16T04:53:19.267Z,8.460
2023-02-16T04:54:19.349Z,8.449
2023-02-16T04:55:19.806Z,8.460
2023-02-16T04:56:19.996Z,8.460
2023-02-16T04:57:19.739Z,8.470
2023-02-16T04:58:18.944Z,8.454
2023-02-16T04:59:19.446Z,8.475
2023-02-16T05:00:20.261Z,8.449
2023-02-16T05:01:19.070Z,8.454
2023-02-16T05:02:19.189Z,8.460
2023-02-16T05:03:19.144Z,8.484
2023-02-16T05:04:19.491Z,8.465
2023-02-16T05:05:19.594Z,8.449
2023-02-16T05:06:33.187Z,8.444
2023-02-16T05:07:19.185Z,8.413
2023-02-16T05:08:20.905Z,8.390
2023-02-16T05:09:19.387Z,8.379
2023-02-16T05:10:19.774Z,8.379
2023-02-16T05:11:19.377Z,8.383
2023-02-16T05:12:19.392Z,8.425
2023-02-16T05:13:19.246Z,8.404
2023-02-16T05:14:19.311Z,8.380
2023-02-16T05:15:19.963Z,8.395
2023-02-16T05:16:19.647Z,8.395
2023-02-16T05:17:19.509Z,8.362
2023-02-16T05:18:19.211Z,8.321
2023-02-16T05:19:19.020Z,8.333
2023-02-16T05:20:19.845Z,8.345
2023-02-16T05:21:19.311Z,8.380
2023-02-16T05:22:19.247Z,8.379
2023-02-16T05:23:19.033Z,8.388
2023-02-16T05:24:18.886Z,8.379
2023-02-16T05:25:19.280Z,8.395
2023-02-16T05:26:19.272Z,8.414
2023-02-16T05:27:19.419Z,8.425
2023-02-16T05:28:19.521Z,8.450
2023-02-16T05:29:19.359Z,8.444
2023-02-16T05:30:20.144Z,8.444
2023-02-16T05:31:19.113Z,8.401
2023-02-16T05:32:19.470Z,8.430
2023-02-16T05:33:19.602Z,8.439
2023-02-16T05:34:19.569Z,8.434
2023-02-16T05:35:19.765Z,8.430
2023-02-16T05:37:19.542Z,8.444
2023-02-16T05:38:19.575Z,8.430
2023-02-16T05:39:19.612Z,8.449
2023-02-16T05:40:19.573Z,8.435
2023-02-16T05:41:19.546Z,8.430
2023-02-16T05:42:19.702Z,8.435
2023-02-16T05:43:19.673Z,8.395
2023-02-16T05:44:19.338Z,8.404
2023-02-16T05:45:20.026Z,8.409
2023-02-16T05:46:19.015Z,8.399
2023-02-16T05:47:19.087Z,8.390
2023-02-16T05:48:19.337Z,8.380
2023-02-16T05:49:19.077Z,8.333
2023-02-16T05:50:19.824Z,8.338
2023-02-16T05:51:19.764Z,8.333
2023-02-16T05:52:19.444Z,8.338
2023-02-16T05:53:19.667Z,8.326
2023-02-16T05:54:20.073Z,8.315
2023-02-16T05:55:19.789Z,8.317
2023-02-16T05:56:19.642Z,8.279
2023-02-16T05:57:19.662Z,8.274
2023-02-16T05:58:19.695Z,8.255
2023-02-16T05:59:19.636Z,8.244
2023-02-16T06:00:20.789Z,8.25
2023-02-16T06:01:19.561Z,8.239
2023-02-16T06:02:19.895Z,8.204
2023-02-16T06:03:19.114Z,8.194
2023-02-16T06:04:19.561Z,8.199
2023-02-16T06:05:20.455Z,8.189
2023-02-16T06:06:19.327Z,8.208
2023-02-16T06:07:19.340Z,8.183
2023-02-16T06:08:19.376Z,8.194
2023-02-16T06:09:19.988Z,8.199
2023-02-16T06:10:19.941Z,8.184
2023-02-16T06:11:19.410Z,8.210
2023-02-16T06:12:19.729Z,8.225
2023-02-16T06:13:20.790Z,8.210
2023-02-16T06:14:20.774Z,8.189
2023-02-16T06:15:20.152Z,8.215
2023-02-16T06:16:20.682Z,8.244
2023-02-16T06:17:20.882Z,8.239
2023-02-16T06:18:20.013Z,8.25
2023-02-16T06:19:19.989Z,8.234
2023-02-16T06:20:23.937Z,8.239
2023-02-16T06:21:24.062Z,8.187
2023-02-16T06:22:24.176Z,8.215
2023-02-16T06:23:22.893Z,8.244
2023-02-16T06:24:23.577Z,8.279
2023-02-16T06:25:25.467Z,8.300
2023-02-16T06:26:24.591Z,8.345
2023-02-16T06:27:22.751Z,8.355
2023-02-16T06:28:22.390Z,8.378
2023-02-16T06:29:22.540Z,8.379
2023-02-16T06:30:24.829Z,8.374
2023-02-16T06:31:21.788Z,8.390
2023-02-16T06:32:21.854Z,8.404
2023-02-16T06:33:20.322Z,8.470
2023-02-16T06:34:20.815Z,8.555
2023-02-16T06:35:21.907Z,8.614
2023-02-16T06:36:22.628Z,8.637
2023-02-16T06:37:21.681Z,8.715
2023-02-16T06:38:21.592Z,8.805
2023-02-16T06:39:20.069Z,8.873
2023-02-16T06:40:22.855Z,8.909
2023-02-16T06:41:19.971Z,8.965
2023-02-16T06:42:21.521Z,9.050
2023-02-16T06:43:21.455Z,9.097
2023-02-16T06:44:20.119Z,9.199
2023-02-16T06:45:19.349Z,9.215
2023-02-16T06:46:20.972Z,9.229
2023-02-16T06:47:19.637Z,9.255
2023-02-16T06:48:19.585Z,9.289
2023-02-16T06:49:20.482Z,9.239
2023-02-16T06:50:21.178Z,9.296
2023-02-16T06:51:20.236Z,9.364
2023-02-16T06:52:20.491Z,9.288
2023-02-16T06:53:19.073Z,9.383
2023-02-16T06:54:19.151Z,9.444
2023-02-16T06:55:21.546Z,9.5
2023-02-16T06:56:19.837Z,9.550
2023-02-16T06:57:19.841Z,9.647
2023-02-16T06:58:21.192Z,9.717
2023-02-16T06:59:21.067Z,9.770
2023-02-16T07:00:19.939Z,9.779
2023-02-16T07:01:21.073Z,9.866
2023-02-16T07:02:44.683Z,9.909
2023-02-16T07:03:22.994Z,9.954
2023-02-16T07:04:21.236Z,10.01
2023-02-16T07:05:21.400Z,10.06
2023-02-16T07:06:20.727Z,10.09
2023-02-16T07:07:20.260Z,10.10
2023-02-16T07:08:20.432Z,10.14
2023-02-16T07:09:19.956Z,10.21
2023-02-16T07:10:20.852Z,10.25
2023-02-16T07:11:21.482Z,10.31
2023-02-16T07:12:20.824Z,10.36
2023-02-16T07:13:22.740Z,10.40
2023-02-16T07:14:20.396Z,10.46
2023-02-16T07:15:21.127Z,10.52
2023-02-16T07:16:20.645Z,10.47
2023-02-16T07:17:20.668Z,10.5
2023-02-16T07:18:20.763Z,10.57
2023-02-16T07:19:20.896Z,10.60
2023-02-16T07:20:22.009Z,10.61
2023-02-16T07:21:21.605Z,10.69
2023-02-16T07:22:21.100Z,10.78
2023-02-16T07:23:21.035Z,10.80
2023-02-16T07:24:20.255Z,10.81
2023-02-16T07:25:21.086Z,10.87
2023-02-16T07:26:21.737Z,10.93
2023-02-16T07:27:20.726Z,11.04
2023-02-16T07:28:21.204Z,11.12
2023-02-16T07:29:20.820Z,11.15
2023-02-16T07:30:21.340Z,11.17
2023-02-16T07:31:22.937Z,11.27
2023-02-16T07:32:21.388Z,11.32
2023-02-16T07:33:22.790Z,11.36
2023-02-16T07:34:22.018Z,11.43
2023-02-16T07:35:22.164Z,11.47
2023-02-16T07:36:21.957Z,11.52
2023-02-16T07:37:23.117Z,11.47
2023-02-16T07:38:28.171Z,11.47
2023-02-16T07:39:22.266Z,11.49
2023-02-16T07:40:21.908Z,11.42
2023-02-16T07:41:22.800Z,11.44
2023-02-16T07:42:21.185Z,11.48
2023-02-16T07:43:21.372Z,11.57
2023-02-16T07:44:21.502Z,11.64
2023-02-16T07:45:21.148Z,11.69
2023-02-16T07:46:21.522Z,11.73
2023-02-16T07:47:21.406Z,11.74
2023-02-16T07:48:20.980Z,11.80
2023-02-16T07:49:21.548Z,11.86
2023-02-16T07:50:21.346Z,11.92
2023-02-16T07:51:21.460Z,11.95
2023-02-16T07:52:21.951Z,11.99
2023-02-16T07:53:21.657Z,11.97
2023-02-16T07:54:21.072Z,12
2023-02-16T07:55:21.736Z,12.04
2023-02-16T07:56:21.711Z,12.06
2023-02-16T07:57:21.333Z,12.10
2023-02-16T07:58:21.435Z,12.13
2023-02-16T07:59:21.465Z,12.15
2023-02-16T08:00:22.457Z,12.17
2023-02-16T08:01:21.879Z,12.21
2023-02-16T08:02:22.227Z,12.21
2023-02-16T08:03:23.170Z,12.22
2023-02-16T08:04:21.697Z,12.24
2023-02-16T08:05:21.374Z,12.25
2023-02-16T08:06:21.377Z,12.24
2023-02-16T08:07:21.920Z,12.28
2023-02-16T08:08:21.588Z,12.33
2023-02-16T08:09:21.240Z,12.37
2023-02-16T08:10:21.966Z,12.42
2023-02-16T08:11:21.412Z,12.42
2023-02-16T08:12:21.379Z,12.43
2023-02-16T08:13:21.273Z,12.46
2023-02-16T08:14:24.230Z,12.49
2023-02-16T08:15:21.552Z,12.47
2023-02-16T08:16:20.175Z,12.52
2023-02-16T08:17:21.679Z,12.56
2023-02-16T08:18:22.122Z,12.58
2023-02-16T08:19:22.000Z,12.59
2023-02-16T08:20:23.785Z,12.63
2023-02-16T08:21:20.886Z,12.67
2023-02-16T08:22:21.616Z,12.69
2023-02-16T08:23:21.574Z,12.69
2023-02-16T08:24:20.610Z,12.65
2023-02-16T08:25:21.593Z,12.68
2023-02-16T08:26:21.408Z,12.73
2023-02-16T08:27:20.944Z,12.75
2023-02-16T08:28:22.522Z,12.76
2023-02-16T08:29:21.417Z,12.80
2023-02-16T08:30:21.399Z,12.81
2023-02-16T08:31:20.381Z,12.87
2023-02-16T08:32:20.431Z,12.83
2023-02-16T08:33:20.804Z,12.86
2023-02-16T08:34:21.465Z,12.86
2023-02-16T08:35:20.906Z,12.86
2023-02-16T08:36:21.213Z,12.89
2023-02-16T08:37:20.656Z,12.91
2023-02-16T08:38:21.477Z,12.94
2023-02-16T08:39:21.367Z,12.96
2023-02-16T08:40:21.529Z,12.99
2023-02-16T08:41:21.033Z,13.04
2023-02-16T08:42:21.605Z,13.07
2023-02-16T08:43:20.649Z,13.11
2023-02-16T08:44:21.294Z,13.15
2023-02-16T08:45:21.068Z,13.18
2023-02-16T08:46:21.850Z,13.19
2023-02-16T08:47:21.088Z,13.16
2023-02-16T08:48:21.802Z,13.26
2023-02-16T08:49:20.199Z,13.28
2023-02-16T08:50:21.400Z,13.31
2023-02-16T08:51:21.088Z,13.32
2023-02-16T08:52:21.175Z,13.36
2023-02-16T08:53:21.407Z,13.38
2023-02-16T08:54:21.080Z,13.43
2023-02-16T08:55:21.269Z,13.48
2023-02-16T08:56:20.977Z,13.51
2023-02-16T08:57:20.955Z,13.55
2023-02-16T08:58:21.071Z,13.61
2023-02-16T08:59:21.501Z,13.66
2023-02-16T09:00:22.576Z,13.69
2023-02-16T09:01:21.192Z,13.76
2023-02-16T09:02:20.958Z,13.80
2023-02-16T09:03:21.627Z,13.82
2023-02-16T09:04:21.010Z,13.89
2023-02-16T09:05:21.411Z,13.92
2023-02-16T09:06:21.253Z,13.98
2023-02-16T09:07:20.974Z,13.99
2023-02-16T09:08:21.387Z,14.02
2023-02-16T09:09:20.968Z,14.06
2023-02-16T09:10:21.043Z,14.09
2023-02-16T09:11:20.974Z,14.12
2023-02-16T09:12:21.301Z,14.13
2023-02-16T09:13:21.372Z,14.16
2023-02-16T09:14:20.973Z,14.19
2023-02-16T09:15:21.269Z,14.22
2023-02-16T09:16:20.979Z,14.24
2023-02-16T09:17:20.644Z,14.26
2023-02-16T09:18:20.946Z,14.27
2023-02-16T09:19:21.049Z,14.30
2023-02-16T09:20:22.088Z,14.35
2023-02-16T09:21:21.010Z,14.35
2023-02-16T09:22:21.531Z,14.44
2023-02-16T09:23:21.417Z,14.43
2023-02-16T09:24:21.851Z,14.47
2023-02-16T09:25:21.960Z,14.48
2023-02-16T09:26:22.186Z,14.49
2023-02-16T09:27:20.720Z,14.51
2023-02-16T09:28:21.293Z,14.54
2023-02-16T09:29:21.511Z,14.55
2023-02-16T09:30:21.830Z,14.62
2023-02-16T09:31:21.580Z,14.70
2023-02-16T09:32:21.835Z,14.77
2023-02-16T09:33:22.443Z,14.79
2023-02-16T09:34:22.208Z,14.78
2023-02-16T09:35:21.967Z,14.82
2023-02-16T09:36:22.423Z,14.79
2023-02-16T09:37:21.900Z,14.92
2023-02-16T09:38:26.650Z,15.01
2023-02-16T09:39:21.237Z,15.11
2023-02-16T09:40:26.991Z,15.22
2023-02-16T09:41:22.178Z,15.25
2023-02-16T09:42:30.084Z,15.33
2023-02-16T09:43:21.290Z,15.43
2023-02-16T09:44:22.128Z,15.52
2023-02-16T09:45:21.466Z,15.64
2023-02-16T09:46:22.707Z,15.75
2023-02-16T09:47:21.402Z,15.84
2023-02-16T09:48:22.027Z,15.91
2023-02-16T09:49:21.790Z,16
2023-02-16T09:50:38.615Z,16.05
2023-02-16T09:51:33.918Z,16.13
2023-02-16T09:52:21.144Z,16.12
2023-02-16T09:53:22.081Z,16.20
2023-02-16T09:54:22.231Z,16.32
2023-02-16T09:55:21.936Z,16.38
2023-02-16T09:56:21.956Z,16.42
2023-02-16T09:57:21.898Z,16.43
2023-02-16T09:58:22.284Z,16.47
2023-02-16T09:59:22.615Z,16.46
2023-02-16T10:00:25.207Z,16.48
2023-02-16T10:01:21.932Z,16.54
2023-02-16T10:02:21.151Z,16.54
2023-02-16T10:03:22.063Z,16.55
2023-02-16T10:04:21.825Z,16.61
2023-02-16T10:05:21.559Z,16.62
2023-02-16T10:06:21.218Z,16.62
2023-02-16T10:07:21.173Z,16.61
2023-02-16T10:08:21.310Z,16.63
2023-02-16T10:09:21.877Z,16.70
2023-02-16T10:10:21.798Z,16.67
2023-02-16T10:11:22.075Z,16.65
2023-02-16T10:12:21.820Z,16.71
2023-02-16T10:13:21.492Z,16.73
2023-02-16T10:14:21.176Z,16.73
2023-02-16T10:15:21.892Z,16.77
2023-02-16T10:16:22.238Z,16.79
2023-02-16T10:17:20.840Z,16.78
2023-02-16T10:18:21.554Z,16.79
2023-02-16T10:19:21.172Z,16.78
2023-02-16T10:20:21.639Z,16.79
2023-02-16T10:21:21.384Z,16.82
2023-02-16T10:22:20.753Z,16.85
2023-02-16T10:23:21.498Z,16.83
2023-02-16T10:24:20.912Z,16.86
2023-02-16T10:25:21.490Z,16.89
2023-02-16T10:26:21.473Z,16.92
2023-02-16T10:27:20.516Z,16.90
2023-02-16T10:28:22.724Z,16.92
2023-02-16T10:29:21.002Z,16.93
2023-02-16T10:30:22.693Z,16.95
2023-02-16T10:31:21.730Z,17.01
2023-02-16T10:32:21.677Z,17.02
2023-02-16T10:33:21.168Z,17.02
2023-02-16T10:34:23.145Z,16.99
2023-02-16T10:35:21.547Z,16.98
2023-02-16T10:36:20.717Z,17.01
2023-02-16T10:37:21.909Z,17.00
2023-02-16T10:38:22.462Z,16.89
2023-02-16T10:39:21.434Z,16.85
2023-02-16T10:40:23.369Z,16.88
2023-02-16T10:41:22.006Z,16.87
2023-02-16T10:42:21.757Z,16.83
2023-02-16T10:43:21.623Z,16.83
2023-02-16T10:44:20.683Z,16.81
2023-02-16T10:45:21.124Z,16.77
2023-02-16T10:46:21.357Z,16.74
2023-02-16T10:47:22.183Z,16.81
2023-02-16T10:48:21.955Z,16.80
2023-02-16T10:49:21.197Z,16.87
2023-02-16T10:50:21.227Z,16.88
2023-02-16T10:51:21.416Z,16.81
2023-02-16T10:52:20.949Z,16.79
2023-02-16T10:53:21.750Z,16.84
2023-02-16T10:54:21.506Z,16.87
2023-02-16T10:55:21.428Z,16.85
2023-02-16T10:56:21.072Z,16.84
2023-02-16T10:57:21.206Z,16.88
2023-02-16T10:58:22.645Z,16.94
2023-02-16T10:59:21.356Z,17.02
2023-02-16T11:00:23.153Z,17.11
2023-02-16T11:01:22.727Z,17.16
2023-02-16T11:02:22.002Z,17.14
2023-02-16T11:03:22.130Z,17.17
2023-02-16T11:04:22.922Z,17.19
2023-02-16T11:05:22.219Z,17.27
2023-02-16T11:06:21.242Z,17.29
2023-02-16T11:07:21.281Z,17.31
2023-02-16T11:08:20.898Z,17.38
2023-02-16T11:09:21.840Z,17.42
2023-02-16T11:10:22.248Z,17.46
2023-02-16T11:11:22.891Z,17.51
2023-02-16T11:12:22.490Z,17.52
2023-02-16T11:13:21.820Z,17.48
2023-02-16T11:14:22.186Z,17.49
2023-02-16T11:15:22.758Z,17.54
2023-02-16T11:16:20.897Z,17.57
2023-02-16T11:17:21.734Z,17.57
2023-02-16T11:18:21.800Z,17.64
2023-02-16T11:19:22.185Z,17.69
2023-02-16T11:20:21.524Z,17.70
2023-02-16T11:21:22.139Z,17.73
2023-02-16T11:22:20.754Z,17.76
2023-02-16T11:23:21.752Z,17.75
2023-02-16T11:24:21.743Z,17.78
2023-02-16T11:25:22.061Z,17.75
2023-02-16T11:26:21.701Z,17.69
2023-02-16T11:27:21.100Z,17.75
2023-02-16T11:28:21.619Z,17.82
2023-02-16T11:29:20.996Z,17.80
2023-02-16T11:30:21.775Z,17.73
2023-02-16T11:31:21.670Z,17.72
2023-02-16T11:32:21.649Z,17.75
2023-02-16T11:33:21.917Z,17.75
2023-02-16T11:34:21.312Z,17.76
2023-02-16T11:35:21.833Z,17.70
2023-02-16T11:36:21.909Z,17.67
2023-02-16T11:37:21.850Z,17.73
2023-02-16T11:38:21.994Z,17.65
2023-02-16T11:39:21.742Z,17.64
2023-02-16T11:40:21.555Z,17.64
2023-02-16T11:41:21.986Z,17.68
2023-02-16T11:42:21.052Z,17.71
2023-02-16T11:43:21.914Z,17.77
2023-02-16T11:44:21.433Z,17.75
2023-02-16T11:45:21.541Z,17.76
2023-02-16T11:46:22.139Z,17.78
2023-02-16T11:47:21.841Z,17.82
2023-02-16T11:48:21.581Z,17.87
2023-02-16T11:49:21.537Z,17.89
2023-02-16T11:50:21.440Z,17.94
2023-02-16T11:51:20.916Z,17.95
2023-02-16T11:52:22.268Z,17.99
2023-02-16T11:53:21.383Z,18.03
2023-02-16T11:54:21.810Z,18.05
2023-02-16T11:55:21.538Z,18.08
2023-02-16T11:56:21.297Z,18.05
2023-02-16T11:57:26.425Z,18.05
2023-02-16T11:58:21.407Z,18.07
2023-02-16T11:59:21.643Z,18.12
2023-02-16T12:00:22.816Z,18.10
2023-02-16T12:01:22.145Z,18.10
2023-02-16T12:02:20.847Z,18.10
2023-02-16T12:03:22.132Z,18.11
2023-02-16T12:04:22.092Z,18.09
2023-02-16T12:05:22.465Z,18.13
2023-02-16T12:06:21.889Z,18.16
2023-02-16T12:07:22.620Z,18.10
2023-02-16T12:08:22.056Z,18.09
2023-02-16T12:09:20.989Z,18.04
2023-02-16T12:10:21.508Z,18.09
2023-02-16T12:11:21.282Z,18.11
2023-02-16T12:12:22.545Z,18.10
2023-02-16T12:13:21.828Z,18.07
2023-02-16T12:14:21.804Z,18.06
2023-02-16T12:15:22.030Z,18.01
2023-02-16T12:16:22.245Z,18
2023-02-16T12:17:21.392Z,17.96
2023-02-16T12:18:21.995Z,17.96
2023-02-16T12:19:22.280Z,17.95
2023-02-16T12:20:22.001Z,17.97
2023-02-16T12:21:21.906Z,17.96
2023-02-16T12:22:22.310Z,17.98
2023-02-16T12:23:21.989Z,17.98
2023-02-16T12:24:21.493Z,18
2023-02-16T12:25:22.192Z,18.01
2023-02-16T12:26:22.992Z,18.04
2023-02-16T12:27:22.604Z,18.01
2023-02-16T12:28:23.154Z,18.02
2023-02-16T12:29:21.395Z,18.04
2023-02-16T12:30:22.811Z,18.09
2023-02-16T12:31:41.189Z,18.10
2023-02-16T12:32:21.252Z,18.11
2023-02-16T12:33:22.133Z,18.13
2023-02-16T12:34:21.973Z,18.11
2023-02-16T12:35:22.465Z,18.07
2023-02-16T12:36:21.304Z,18.07
2023-02-16T12:37:21.044Z,18.10
2023-02-16T12:38:21.743Z,18.13
2023-02-16T12:39:22.197Z,18.14
2023-02-16T12:40:21.786Z,18.15
2023-02-16T12:41:22.104Z,18.14
2023-02-16T12:42:22.297Z,18.13
2023-02-16T12:43:21.843Z,18.13
2023-02-16T12:44:21.754Z,18.11
2023-02-16T12:45:22.395Z,18.03
2023-02-16T12:46:23.898Z,18.00
2023-02-16T12:47:21.683Z,17.97
2023-02-16T12:48:21.452Z,17.95
2023-02-16T12:49:21.380Z,17.95
2023-02-16T12:50:22.284Z,17.89
2023-02-16T12:51:21.539Z,17.88
2023-02-16T12:52:21.976Z,17.90
2023-02-16T12:53:22.092Z,17.87
2023-02-16T12:54:24.599Z,17.91